createdAt,value
2023-04-16T00:00:10.686Z,13.54
2023-04-16T00:01:11.871Z,13.49
2023-04-16T00:01:51.838Z,13.48
2023-04-16T00:02:54.012Z,13.39
2023-04-16T00:03:40.948Z,13.52
2023-04-16T00:04:21.804Z,13.53
2023-04-16T00:05:15.803Z,13.53
2023-04-16T00:06:09.874Z,13.50
2023-04-16T00:07:03.697Z,13.62
2023-04-16T00:07:58.677Z,13.54
2023-04-16T00:08:52.662Z,13.59
2023-04-16T00:09:39.750Z,13.57
2023-04-16T00:10:14.766Z,13.48
2023-04-16T00:11:01.701Z,13.44
2023-04-16T00:11:35.789Z,13.36
2023-04-16T00:12:22.686Z,13.51
2023-04-16T00:12:56.771Z,13.44
2023-04-16T00:13:43.679Z,13.34
2023-04-16T00:14:17.812Z,13.43
2023-04-16T00:15:06.712Z,13.35
2023-04-16T00:15:40.797Z,13.35
2023-04-16T00:16:27.699Z,13.37
2023-04-16T00:17:01.898Z,13.36
2023-04-16T00:17:48.685Z,13.43
2023-04-16T00:18:22.773Z,13.43
2023-04-16T00:19:09.785Z,13.42
2023-04-16T00:19:44.776Z,13.43
2023-04-16T00:20:31.706Z,13.47
2023-04-16T00:21:05.905Z,13.47
2023-04-16T00:21:53.655Z,13.47
2023-04-16T00:22:27.765Z,13.44
2023-04-16T00:23:14.672Z,13.47
2023-04-16T00:23:48.804Z,13.37
2023-04-16T00:24:37.649Z,13.46
2023-04-16T00:25:11.740Z,13.31
2023-04-16T00:25:52.672Z,13.45
2023-04-16T00:26:32.769Z,13.38
2023-04-16T00:27:13.674Z,13.45
2023-04-16T00:27:53.852Z,13.41
2023-04-16T00:28:34.680Z,13.47
2023-04-16T00:29:14.755Z,13.49
2023-04-16T00:29:54.636Z,13.42
2023-04-16T00:30:35.180Z,13.33
2023-04-16T00:31:15.712Z,13.39
2023-04-16T00:31:56.782Z,13.38
2023-04-16T00:32:37.746Z,13.36
2023-04-16T00:33:17.782Z,13.38
2023-04-16T00:33:57.663Z,13.52
2023-04-16T00:34:37.736Z,13.51
2023-04-16T00:35:17.646Z,13.45
2023-04-16T00:35:57.788Z,13.45
2023-04-16T00:36:38.706Z,13.51
2023-04-16T00:37:18.713Z,13.53
2023-04-16T00:37:58.623Z,13.44
2023-04-16T00:38:38.718Z,13.51
2023-04-16T00:39:18.633Z,13.40
2023-04-16T00:39:58.722Z,13.36
2023-04-16T00:40:38.624Z,13.38
2023-04-16T00:41:18.715Z,13.37
2023-04-16T00:41:58.648Z,13.36
2023-04-16T00:42:38.703Z,13.36
2023-04-16T00:43:23.645Z,13.30
2023-04-16T00:44:03.955Z,13.27
2023-04-16T00:44:43.638Z,13.26
2023-04-16T00:45:23.779Z,13.27
2023-04-16T00:46:04.711Z,13.27
2023-04-16T00:46:44.769Z,13.26
2023-04-16T00:47:26.646Z,13.30
2023-04-16T00:48:07.707Z,13.16
2023-04-16T00:48:48.622Z,13.13
2023-04-16T00:49:28.700Z,12.93
2023-04-16T00:50:10.643Z,13.09
2023-04-16T00:50:50.687Z,12.96
2023-04-16T00:51:31.627Z,12.98
2023-04-16T00:52:11.700Z,13.03
2023-04-16T00:52:56.664Z,13.08
2023-04-16T00:53:37.797Z,13.05
2023-04-16T00:54:17.607Z,13.12
2023-04-16T00:54:57.690Z,13.13
2023-04-16T00:55:38.613Z,13.09
2023-04-16T00:56:20.583Z,13.14
2023-04-16T00:57:00.596Z,13.07
2023-04-16T00:57:40.758Z,13.15
2023-04-16T00:58:20.641Z,12.98
2023-04-16T00:59:01.720Z,13.13
2023-04-16T00:59:42.634Z,13.09
2023-04-16T01:00:23.696Z,13.11
2023-04-16T01:01:04.666Z,13.05
2023-04-16T01:01:44.722Z,13.07
2023-04-16T01:02:24.703Z,13.16
2023-04-16T01:03:05.946Z,13.18
2023-04-16T01:03:52.835Z,13.24
2023-04-16T01:04:34.027Z,13.26
2023-04-16T01:05:14.609Z,13.21
2023-04-16T01:05:54.754Z,13.28
2023-04-16T01:06:34.605Z,13.16
2023-04-16T01:07:14.672Z,13.28
2023-04-16T01:07:54.638Z,13.30
2023-04-16T01:08:34.720Z,13.34
2023-04-16T01:09:16.621Z,13.29
2023-04-16T01:09:56.689Z,13.19
2023-04-16T01:10:37.582Z,13.13
2023-04-16T01:11:18.793Z,12.94
2023-04-16T01:11:58.633Z,12.93
2023-04-16T01:12:38.728Z,13.03
2023-04-16T01:13:19.598Z,12.94
2023-04-16T01:13:59.710Z,12.94
2023-04-16T01:14:42.702Z,12.94
2023-04-16T01:15:22.734Z,12.92
2023-04-16T01:16:02.620Z,12.80
2023-04-16T01:16:42.684Z,12.79
2023-04-16T01:17:22.616Z,12.92
2023-04-16T01:18:02.838Z,12.92
2023-04-16T01:18:44.600Z,12.97
2023-04-16T01:19:24.715Z,13.07
2023-04-16T01:20:07.609Z,12.92
2023-04-16T01:20:47.702Z,13.03
2023-04-16T01:21:28.623Z,12.77
2023-04-16T01:22:09.677Z,12.92
2023-04-16T01:22:49.573Z,12.72
2023-04-16T01:23:29.684Z,12.72
2023-04-16T01:24:11.579Z,12.76
2023-04-16T01:24:51.684Z,12.75
2023-04-16T01:25:32.617Z,12.76
2023-04-16T01:26:12.682Z,12.77
2023-04-16T01:26:52.588Z,12.77
2023-04-16T01:27:32.853Z,12.77
2023-04-16T01:28:13.583Z,12.83
2023-04-16T01:28:53.660Z,12.75
2023-04-16T01:29:34.572Z,12.77
2023-04-16T01:30:15.924Z,12.87
2023-04-16T01:30:55.700Z,12.82
2023-04-16T01:31:35.717Z,12.88
2023-04-16T01:32:16.777Z,12.89
2023-04-16T01:32:57.825Z,12.86
2023-04-16T01:33:37.620Z,12.86
2023-04-16T01:34:17.657Z,12.96
2023-04-16T01:34:57.569Z,12.95
2023-04-16T01:35:37.733Z,12.88
2023-04-16T01:36:18.574Z,12.98
2023-04-16T01:36:58.652Z,12.96
2023-04-16T01:37:38.576Z,12.85
2023-04-16T01:38:18.772Z,12.85
2023-04-16T01:38:58.571Z,12.90
2023-04-16T01:39:38.672Z,12.87
2023-04-16T01:40:19.615Z,12.73
2023-04-16T01:41:03.727Z,12.89
2023-04-16T01:41:44.584Z,12.88
2023-04-16T01:42:24.633Z,12.89
2023-04-16T01:43:04.574Z,12.84
2023-04-16T01:43:44.703Z,12.84
2023-04-16T01:44:25.623Z,12.96
2023-04-16T01:45:05.667Z,12.90
2023-04-16T01:45:45.575Z,12.95
2023-04-16T01:46:32.677Z,12.89
2023-04-16T01:47:12.579Z,12.97
2023-04-16T01:47:52.790Z,12.92
2023-04-16T01:48:33.575Z,12.87
2023-04-16T01:49:13.746Z,12.91
2023-04-16T01:49:54.565Z,12.88
2023-04-16T01:50:48.589Z,12.88
2023-04-16T01:51:42.559Z,12.79
2023-04-16T01:52:29.611Z,12.70
2023-04-16T01:53:05.074Z,12.75
2023-04-16T01:53:52.588Z,12.71
2023-04-16T01:54:26.817Z,12.82
2023-04-16T01:55:14.582Z,12.86
2023-04-16T01:55:48.659Z,12.81
2023-04-16T01:56:35.550Z,12.85
2023-04-16T01:57:09.657Z,12.87
2023-04-16T01:57:49.612Z,12.79
2023-04-16T01:58:30.734Z,12.94
2023-04-16T01:59:11.745Z,12.98
2023-04-16T01:59:51.635Z,12.94
2023-04-16T02:00:32.587Z,12.90
2023-04-16T02:01:12.696Z,12.97
2023-04-16T02:01:52.643Z,12.92
2023-04-16T02:02:32.827Z,13.00
2023-04-16T02:03:12.681Z,12.96
2023-04-16T02:03:53.846Z,12.95
2023-04-16T02:04:34.568Z,12.92
2023-04-16T02:05:14.673Z,12.95
2023-04-16T02:05:55.574Z,12.97
2023-04-16T02:06:35.769Z,12.91
2023-04-16T02:07:16.562Z,12.96
2023-04-16T02:07:56.652Z,12.94
2023-04-16T02:08:37.548Z,12.96
2023-04-16T02:09:17.751Z,12.94
2023-04-16T02:09:58.570Z,12.94
2023-04-16T02:10:38.675Z,12.86
2023-04-16T02:11:18.576Z,12.77
2023-04-16T02:11:58.810Z,12.86
2023-04-16T02:12:39.550Z,12.80
2023-04-16T02:13:22.009Z,12.93
2023-04-16T02:14:01.612Z,12.88
2023-04-16T02:14:41.670Z,12.83
2023-04-16T02:15:22.529Z,12.86
2023-04-16T02:16:02.739Z,12.83
2023-04-16T02:16:43.587Z,12.88
2023-04-16T02:17:23.854Z,12.86
2023-04-16T02:18:03.578Z,12.90
2023-04-16T02:18:43.622Z,12.81
2023-04-16T02:19:24.601Z,12.73
2023-04-16T02:20:07.893Z,12.72
2023-04-16T02:20:52.542Z,12.82
2023-04-16T02:21:32.742Z,12.79
2023-04-16T02:22:13.522Z,12.73
2023-04-16T02:22:54.033Z,12.75
2023-04-16T02:23:33.530Z,12.88
2023-04-16T02:24:13.642Z,12.85
2023-04-16T02:24:54.540Z,12.85
2023-04-16T02:25:34.673Z,12.82
2023-04-16T02:26:14.531Z,12.85
2023-04-16T02:26:54.681Z,12.94
2023-04-16T02:27:34.546Z,12.89
2023-04-16T02:28:16.619Z,12.94
2023-04-16T02:28:57.497Z,12.99
2023-04-16T02:29:37.823Z,12.93
2023-04-16T02:30:18.552Z,12.90
2023-04-16T02:30:59.690Z,13.00
2023-04-16T02:31:39.516Z,12.89
2023-04-16T02:32:19.748Z,12.90
2023-04-16T02:33:00.554Z,12.89
2023-04-16T02:33:40.598Z,12.97
2023-04-16T02:34:21.520Z,13.01
2023-04-16T02:35:03.954Z,13.05
2023-04-16T02:35:45.535Z,13.00
2023-04-16T02:36:25.641Z,12.89
2023-04-16T02:37:06.573Z,13.01
2023-04-16T02:37:46.624Z,12.96
2023-04-16T02:38:26.506Z,12.94
2023-04-16T02:39:06.809Z,13.06
2023-04-16T02:39:47.527Z,12.99
2023-04-16T02:40:27.701Z,13.03
2023-04-16T02:41:08.525Z,13.11
2023-04-16T02:41:48.604Z,13.11
2023-04-16T02:42:28.523Z,13.14
2023-04-16T02:43:08.601Z,13.19
2023-04-16T02:43:48.524Z,13.18
2023-04-16T02:44:28.614Z,13.14
2023-04-16T02:45:09.504Z,13.16
2023-04-16T02:45:49.681Z,13.20
2023-04-16T02:46:29.577Z,13.10
2023-04-16T02:47:09.626Z,13.13
2023-04-16T02:47:49.531Z,12.96
2023-04-16T02:48:29.648Z,13.07
2023-04-16T02:49:10.678Z,13.10
2023-04-16T02:49:50.725Z,13.15
2023-04-16T02:50:30.506Z,13.16
2023-04-16T02:51:24.532Z,13.27
2023-04-16T02:52:04.548Z,13.31
2023-04-16T02:52:44.667Z,13.31
2023-04-16T02:53:25.489Z,13.28
2023-04-16T02:54:05.597Z,13.30
2023-04-16T02:54:45.488Z,13.31
2023-04-16T02:55:25.802Z,13.27
2023-04-16T02:56:05.549Z,13.28
2023-04-16T02:56:45.617Z,13.28
2023-04-16T02:57:26.559Z,13.24
2023-04-16T02:58:06.648Z,13.29
2023-04-16T02:58:47.503Z,13.25
2023-04-16T02:59:27.604Z,13.19
2023-04-16T03:00:08.483Z,13.20
2023-04-16T03:00:48.613Z,13.20
2023-04-16T03:01:29.520Z,13.05
2023-04-16T03:02:09.602Z,13.15
2023-04-16T03:02:49.605Z,13.00
2023-04-16T03:03:29.601Z,13.17
2023-04-16T03:04:10.551Z,13.22
2023-04-16T03:04:50.739Z,13.16
2023-04-16T03:05:31.479Z,13.26
2023-04-16T03:06:11.717Z,13.36
2023-04-16T03:06:52.477Z,13.34
2023-04-16T03:07:32.597Z,13.43
2023-04-16T03:08:13.486Z,13.33
2023-04-16T03:08:53.601Z,13.37
2023-04-16T03:09:34.500Z,13.29
2023-04-16T03:10:15.623Z,13.37
2023-04-16T03:10:55.484Z,13.41
2023-04-16T03:11:35.740Z,13.34
2023-04-16T03:12:15.483Z,13.36
2023-04-16T03:12:55.633Z,13.38
2023-04-16T03:13:36.512Z,13.41
2023-04-16T03:14:16.583Z,13.40
2023-04-16T03:14:59.515Z,13.42
2023-04-16T03:15:39.674Z,13.42
2023-04-16T03:16:19.617Z,13.44
2023-04-16T03:16:59.557Z,13.40
2023-04-16T03:17:40.508Z,13.38
2023-04-16T03:18:20.596Z,13.36
2023-04-16T03:19:00.511Z,13.30
2023-04-16T03:19:40.568Z,13.31
2023-04-16T03:20:23.479Z,13.38
2023-04-16T03:21:03.580Z,13.30
2023-04-16T03:21:43.482Z,13.27
2023-04-16T03:22:24.610Z,13.31
2023-04-16T03:23:04.481Z,13.21
2023-04-16T03:23:44.586Z,13.35
2023-04-16T03:24:24.542Z,13.29
2023-04-16T03:25:04.597Z,13.29
2023-04-16T03:25:47.474Z,13.34
2023-04-16T03:26:27.545Z,13.36
2023-04-16T03:27:08.479Z,13.37
2023-04-16T03:27:48.550Z,13.39
2023-04-16T03:28:28.463Z,13.40
2023-04-16T03:29:08.810Z,13.33
2023-04-16T03:29:49.508Z,13.38
2023-04-16T03:30:29.607Z,13.24
2023-04-16T03:31:10.525Z,13.31
2023-04-16T03:31:50.593Z,13.37
2023-04-16T03:32:30.513Z,13.31
2023-04-16T03:33:10.691Z,13.19
2023-04-16T03:33:51.462Z,13.14
2023-04-16T03:34:45.495Z,13.21
2023-04-16T03:35:25.506Z,13.24
2023-04-16T03:36:05.557Z,13.26
2023-04-16T03:36:45.457Z,13.24
2023-04-16T03:37:25.719Z,13.24
2023-04-16T03:38:06.447Z,13.21
2023-04-16T03:38:46.540Z,13.27
2023-04-16T03:39:27.469Z,13.20
2023-04-16T03:40:07.523Z,13.16
2023-04-16T03:40:47.478Z,13.16
2023-04-16T03:41:27.550Z,13.13
2023-04-16T03:42:08.473Z,13.20
2023-04-16T03:42:48.540Z,13.19
2023-04-16T03:43:28.458Z,13.13
2023-04-16T03:44:08.563Z,13.06
2023-04-16T03:44:49.455Z,13.02
2023-04-16T03:45:29.555Z,13.17
2023-04-16T03:46:10.462Z,13.18
2023-04-16T03:46:50.715Z,13.19
2023-04-16T03:47:30.478Z,13.13
2023-04-16T03:48:10.695Z,13.20
2023-04-16T03:48:50.466Z,13.12
2023-04-16T03:49:30.594Z,13.26
2023-04-16T03:50:12.484Z,13.23
2023-04-16T03:50:53.525Z,13.22
2023-04-16T03:51:34.470Z,13.19
2023-04-16T03:52:14.546Z,13.32
2023-04-16T03:52:55.437Z,13.29
2023-04-16T03:53:35.611Z,13.27
2023-04-16T03:54:16.468Z,13.22
2023-04-16T03:54:56.560Z,13.28
2023-04-16T03:55:37.452Z,13.29
2023-04-16T03:56:17.544Z,13.21
2023-04-16T03:56:58.466Z,13.29
2023-04-16T03:57:38.602Z,13.26
2023-04-16T03:58:19.450Z,13.30
2023-04-16T03:58:59.526Z,13.30
2023-04-16T03:59:39.435Z,13.34
2023-04-16T04:00:19.564Z,13.37
2023-04-16T04:01:01.536Z,13.40
2023-04-16T04:01:41.614Z,13.38
2023-04-16T04:02:22.559Z,13.41
2023-04-16T04:03:03.699Z,13.41
2023-04-16T04:03:44.556Z,13.42
2023-04-16T04:04:24.603Z,13.38
2023-04-16T04:05:04.522Z,13.39
2023-04-16T04:05:48.586Z,13.42
2023-04-16T04:06:29.435Z,13.46
2023-04-16T04:07:09.547Z,13.35
2023-04-16T04:07:49.477Z,13.36
2023-04-16T04:08:29.573Z,13.39
2023-04-16T04:09:11.640Z,13.44
2023-04-16T04:09:51.523Z,13.44
2023-04-16T04:10:32.427Z,13.46
2023-04-16T04:11:12.504Z,13.42
2023-04-16T04:11:52.442Z,13.48
2023-04-16T04:12:32.504Z,13.49
2023-04-16T04:13:13.525Z,13.46
2023-04-16T04:13:53.526Z,13.48
2023-04-16T04:14:34.857Z,13.52
2023-04-16T04:15:16.576Z,13.53
2023-04-16T04:15:57.483Z,13.58
2023-04-16T04:16:38.638Z,13.56
2023-04-16T04:17:18.433Z,13.55
2023-04-16T04:17:58.523Z,13.54
2023-04-16T04:18:39.421Z,13.47
2023-04-16T04:19:19.495Z,13.51
2023-04-16T04:20:01.740Z,13.50
2023-04-16T04:20:46.526Z,13.39
2023-04-16T04:21:27.422Z,13.23
2023-04-16T04:22:07.500Z,13.35
2023-04-16T04:22:48.413Z,13.32
2023-04-16T04:23:28.536Z,13.36
2023-04-16T04:24:08.432Z,13.42
2023-04-16T04:24:48.517Z,13.46
2023-04-16T04:25:29.416Z,13.35
2023-04-16T04:26:10.527Z,13.43
2023-04-16T04:26:51.416Z,13.28
2023-04-16T04:27:31.507Z,13.39
2023-04-16T04:28:11.432Z,13.45
2023-04-16T04:28:51.506Z,13.37
2023-04-16T04:29:31.491Z,13.47
2023-04-16T04:30:12.494Z,13.38
2023-04-16T04:30:53.419Z,13.38
2023-04-16T04:31:33.525Z,13.43
2023-04-16T04:32:13.409Z,13.34
2023-04-16T04:32:53.541Z,13.42
2023-04-16T04:33:34.437Z,13.46
2023-04-16T04:34:14.489Z,13.48
2023-04-16T04:34:55.435Z,13.43
2023-04-16T04:35:35.540Z,13.51
2023-04-16T04:36:15.405Z,13.30
2023-04-16T04:36:55.622Z,13.14
2023-04-16T04:37:36.427Z,13.20
2023-04-16T04:38:19.846Z,13.12
2023-04-16T04:39:00.410Z,13.18
2023-04-16T04:39:40.516Z,13.03
2023-04-16T04:40:20.424Z,13.08
2023-04-16T04:41:00.826Z,13.12
2023-04-16T04:41:40.408Z,13.10
2023-04-16T04:42:22.538Z,13.15
2023-04-16T04:43:03.390Z,13.16
2023-04-16T04:43:43.500Z,12.98
2023-04-16T04:44:23.414Z,12.98
2023-04-16T04:45:03.487Z,12.96
2023-04-16T04:45:44.458Z,12.98
2023-04-16T04:46:24.564Z,13.02
2023-04-16T04:47:05.419Z,13.01
2023-04-16T04:47:45.575Z,12.96
2023-04-16T04:48:25.423Z,13.06
2023-04-16T04:49:05.505Z,13.16
2023-04-16T04:49:46.395Z,13.20
2023-04-16T04:50:27.468Z,13.07
2023-04-16T04:51:08.458Z,13.17
2023-04-16T04:51:48.783Z,13.15
2023-04-16T04:52:28.384Z,13.21
2023-04-16T04:53:11.607Z,13.25
2023-04-16T04:53:51.393Z,13.26
2023-04-16T04:54:31.532Z,13.22
2023-04-16T04:55:12.390Z,13.22
2023-04-16T04:55:55.621Z,13.32
2023-04-16T04:56:38.402Z,13.35
2023-04-16T04:57:18.476Z,13.35
2023-04-16T04:57:58.387Z,13.29
2023-04-16T04:58:38.509Z,13.23
2023-04-16T04:59:19.379Z,13.23
2023-04-16T04:59:59.557Z,13.28
2023-04-16T05:00:40.392Z,13.23
2023-04-16T05:01:20.856Z,13.30
2023-04-16T05:02:02.448Z,13.26
2023-04-16T05:02:42.564Z,13.32
2023-04-16T05:03:27.403Z,13.38
2023-04-16T05:04:07.591Z,13.39
2023-04-16T05:04:47.424Z,13.29
2023-04-16T05:05:27.702Z,13.30
2023-04-16T05:06:07.466Z,13.35
2023-04-16T05:06:47.467Z,13.33
2023-04-16T05:07:28.424Z,13.36
2023-04-16T05:08:08.512Z,13.34
2023-04-16T05:08:48.387Z,13.25
2023-04-16T05:09:28.466Z,13.34
2023-04-16T05:10:08.383Z,13.39
2023-04-16T05:10:48.545Z,13.39
2023-04-16T05:11:29.433Z,13.31
2023-04-16T05:12:10.675Z,13.35
2023-04-16T05:12:50.417Z,13.36
2023-04-16T05:13:30.749Z,13.34
2023-04-16T05:14:11.405Z,13.39
2023-04-16T05:14:51.465Z,13.48
2023-04-16T05:15:32.372Z,13.42
2023-04-16T05:16:13.520Z,13.35
2023-04-16T05:16:53.413Z,13.39
2023-04-16T05:17:33.476Z,13.47
2023-04-16T05:18:13.393Z,13.32
2023-04-16T05:18:53.572Z,13.26
2023-04-16T05:19:34.382Z,13.06
2023-04-16T05:20:16.501Z,13.10
2023-04-16T05:20:57.425Z,13.10
2023-04-16T05:21:37.465Z,13.12
2023-04-16T05:22:17.351Z,13.09
2023-04-16T05:22:58.498Z,13.03
2023-04-16T05:23:39.376Z,12.92
2023-04-16T05:24:19.451Z,12.95
2023-04-16T05:24:59.352Z,12.93
2023-04-16T05:25:39.495Z,12.87
2023-04-16T05:26:19.630Z,12.87
2023-04-16T05:26:59.465Z,12.94
2023-04-16T05:27:40.369Z,12.83
2023-04-16T05:28:20.466Z,12.83
2023-04-16T05:29:00.367Z,12.88
2023-04-16T05:29:40.722Z,12.94
2023-04-16T05:30:20.356Z,13.03
2023-04-16T05:31:00.855Z,13.05
2023-04-16T05:31:42.370Z,13.10
2023-04-16T05:32:23.572Z,13.20
2023-04-16T05:33:03.378Z,13.16
2023-04-16T05:33:43.509Z,13.19
2023-04-16T05:34:23.430Z,13.19
2023-04-16T05:35:03.527Z,13.27
2023-04-16T05:35:44.352Z,13.29
2023-04-16T05:36:24.482Z,13.18
2023-04-16T05:37:04.384Z,13.13
2023-04-16T05:37:44.409Z,13.05
2023-04-16T05:38:24.374Z,13.10
2023-04-16T05:39:04.427Z,13.01
2023-04-16T05:39:45.421Z,12.91
2023-04-16T05:40:26.182Z,12.91
2023-04-16T05:41:06.347Z,12.88
2023-04-16T05:41:46.455Z,12.93
2023-04-16T05:42:26.333Z,12.96
2023-04-16T05:43:06.491Z,13.01
2023-04-16T05:43:47.336Z,13.05
2023-04-16T05:44:27.425Z,13.18
2023-04-16T05:45:11.399Z,13.20
2023-04-16T05:45:51.515Z,13.19
2023-04-16T05:46:32.428Z,13.29
2023-04-16T05:47:12.459Z,13.23
2023-04-16T05:47:53.350Z,13.24
2023-04-16T05:48:33.487Z,13.28
2023-04-16T05:49:13.337Z,13.34
2023-04-16T05:49:53.427Z,13.33
2023-04-16T05:50:33.383Z,13.26
2023-04-16T05:51:13.444Z,13.36
2023-04-16T05:51:54.397Z,13.33
2023-04-16T05:52:34.418Z,13.32
2023-04-16T05:53:15.340Z,13.27
2023-04-16T05:53:55.565Z,13.34
2023-04-16T05:54:35.353Z,13.32
2023-04-16T05:55:16.467Z,13.41
2023-04-16T05:55:57.367Z,13.28
2023-04-16T05:56:37.407Z,13.16
2023-04-16T05:57:18.327Z,13.28
2023-04-16T05:57:58.606Z,13.26
2023-04-16T05:58:38.331Z,13.27
2023-04-16T05:59:18.472Z,13.01
2023-04-16T05:59:59.345Z,13.30
2023-04-16T06:00:40.862Z,13.41
2023-04-16T06:01:21.349Z,13.48
2023-04-16T06:02:01.550Z,13.53
2023-04-16T06:02:43.475Z,13.48
2023-04-16T06:03:23.455Z,13.55
2023-04-16T06:04:04.561Z,13.64
2023-04-16T06:04:44.469Z,13.51
2023-04-16T06:05:25.425Z,13.60
2023-04-16T06:06:05.675Z,13.58
2023-04-16T06:06:46.374Z,13.67
2023-04-16T06:07:26.408Z,13.57
2023-04-16T06:08:07.310Z,13.69
2023-04-16T06:08:47.474Z,13.79
2023-04-16T06:09:27.318Z,13.74
2023-04-16T06:10:07.404Z,13.68
2023-04-16T06:10:48.326Z,13.70
2023-04-16T06:11:28.392Z,13.72
2023-04-16T06:12:09.345Z,13.72
2023-04-16T06:12:49.485Z,13.84
2023-04-16T06:13:29.318Z,13.87
2023-04-16T06:14:09.501Z,13.84
2023-04-16T06:14:49.325Z,13.83
2023-04-16T06:15:29.418Z,13.78
2023-04-16T06:16:10.360Z,13.94
2023-04-16T06:16:51.001Z,13.95
2023-04-16T06:17:31.388Z,13.87
2023-04-16T06:18:11.433Z,13.86
2023-04-16T06:18:51.358Z,13.87
2023-04-16T06:19:31.400Z,13.89
2023-04-16T06:20:13.355Z,13.86
2023-04-16T06:20:54.586Z,13.82
2023-04-16T06:21:35.309Z,13.84
2023-04-16T06:22:15.394Z,13.82
2023-04-16T06:22:55.325Z,13.85
2023-04-16T06:23:35.423Z,13.99
2023-04-16T06:24:16.309Z,13.78
2023-04-16T06:24:56.397Z,13.89
2023-04-16T06:25:37.308Z,14.02
2023-04-16T06:26:18.419Z,14.05
2023-04-16T06:26:58.330Z,14.09
2023-04-16T06:27:38.384Z,14.15
2023-04-16T06:28:19.339Z,14.07
2023-04-16T06:28:59.378Z,14.15
2023-04-16T06:29:41.508Z,14.13
2023-04-16T06:30:23.415Z,14.08
2023-04-16T06:31:03.366Z,14.11
2023-04-16T06:31:43.428Z,14.13
2023-04-16T06:32:24.343Z,14.13
2023-04-16T06:33:04.504Z,14.07
2023-04-16T06:33:44.348Z,14.13
2023-04-16T06:34:24.407Z,14.13
2023-04-16T06:35:05.280Z,14.23
2023-04-16T06:35:45.425Z,14.23
2023-04-16T06:36:26.291Z,14.29
2023-04-16T06:37:09.114Z,14.32
2023-04-16T06:37:50.319Z,14.35
2023-04-16T06:38:30.439Z,14.39
2023-04-16T06:39:11.543Z,14.37
2023-04-16T06:39:52.441Z,14.35
2023-04-16T06:40:33.303Z,14.45
2023-04-16T06:41:13.386Z,14.49
2023-04-16T06:41:56.285Z,14.44
2023-04-16T06:42:36.605Z,14.46
2023-04-16T06:43:16.276Z,14.64
2023-04-16T06:43:56.422Z,14.66
2023-04-16T06:44:37.338Z,14.67
2023-04-16T06:45:18.460Z,14.64
2023-04-16T06:45:58.287Z,14.51
2023-04-16T06:46:38.422Z,14.65
2023-04-16T06:47:18.327Z,14.75
2023-04-16T06:47:59.128Z,14.78
2023-04-16T06:48:40.283Z,14.75
2023-04-16T06:49:20.362Z,14.70
2023-04-16T06:50:00.305Z,14.71
2023-04-16T06:50:40.425Z,14.69
2023-04-16T06:51:20.292Z,14.79
2023-04-16T06:52:00.475Z,14.71
2023-04-16T06:52:41.286Z,14.80
2023-04-16T06:53:22.374Z,14.80
2023-04-16T06:54:02.292Z,14.81
2023-04-16T06:54:43.383Z,14.81
2023-04-16T06:55:24.306Z,14.81
2023-04-16T06:56:04.386Z,14.74
2023-04-16T06:56:45.275Z,14.85
2023-04-16T06:57:25.399Z,14.79
2023-04-16T06:58:05.284Z,14.78
2023-04-16T06:58:45.358Z,14.80
2023-04-16T06:59:25.269Z,14.71
2023-04-16T07:00:05.420Z,14.75
2023-04-16T07:00:46.333Z,14.70
2023-04-16T07:01:26.400Z,14.83
2023-04-16T07:02:06.434Z,14.69
2023-04-16T07:02:46.536Z,14.80
2023-04-16T07:03:27.379Z,14.81
2023-04-16T07:04:07.469Z,14.72
2023-04-16T07:04:48.295Z,14.79
2023-04-16T07:05:28.439Z,14.79
2023-04-16T07:06:09.281Z,14.77
2023-04-16T07:06:49.339Z,14.76
2023-04-16T07:07:29.274Z,14.90
2023-04-16T07:08:09.342Z,14.79
2023-04-16T07:08:50.238Z,14.73
2023-04-16T07:09:30.596Z,14.69
2023-04-16T07:10:12.286Z,14.72
2023-04-16T07:10:53.783Z,14.73
2023-04-16T07:11:34.317Z,14.89
2023-04-16T07:12:14.391Z,14.91
2023-04-16T07:12:55.275Z,14.96
2023-04-16T07:13:35.421Z,15.09
2023-04-16T07:14:16.868Z,15.07
2023-04-16T07:14:57.338Z,15.10
2023-04-16T07:15:38.239Z,15.10
2023-04-16T07:16:18.385Z,15.12
2023-04-16T07:16:59.271Z,15.16
2023-04-16T07:17:39.395Z,15.25
2023-04-16T07:18:20.866Z,15.21
2023-04-16T07:19:01.334Z,15.25
2023-04-16T07:19:42.271Z,15.19
2023-04-16T07:20:22.450Z,15.33
2023-04-16T07:21:03.255Z,15.30
2023-04-16T07:21:57.292Z,15.32
2023-04-16T07:22:38.260Z,15.36
2023-04-16T07:23:18.356Z,15.30
2023-04-16T07:23:58.259Z,15.20
2023-04-16T07:24:38.337Z,15.17
2023-04-16T07:25:19.260Z,15.03
2023-04-16T07:25:59.368Z,15.09
2023-04-16T07:26:39.251Z,15.01
2023-04-16T07:27:19.284Z,14.97
2023-04-16T07:27:53.337Z,15.01
2023-04-16T07:28:40.232Z,14.94
2023-04-16T07:29:14.354Z,15.11
2023-04-16T07:30:02.259Z,15.12
2023-04-16T07:30:36.411Z,15.14
2023-04-16T07:31:23.365Z,15.00
2023-04-16T07:31:57.364Z,15.10
2023-04-16T07:32:44.322Z,15.04
2023-04-16T07:33:18.338Z,15.20
2023-04-16T07:34:05.220Z,15.10
2023-04-16T07:34:39.467Z,15.16
2023-04-16T07:35:26.263Z,15.18
2023-04-16T07:36:00.472Z,15.19
2023-04-16T07:36:48.255Z,15.37
2023-04-16T07:37:22.683Z,15.35
2023-04-16T07:38:09.268Z,15.56
2023-04-16T07:38:43.398Z,15.60
2023-04-16T07:39:30.259Z,15.63
2023-04-16T07:40:04.478Z,15.68
2023-04-16T07:40:51.234Z,15.62
2023-04-16T07:41:25.326Z,15.55
2023-04-16T07:42:13.266Z,15.83
2023-04-16T07:42:47.340Z,15.81
2023-04-16T07:43:34.351Z,15.85
2023-04-16T07:44:08.323Z,15.91
2023-04-16T07:44:55.255Z,15.85
2023-04-16T07:45:30.329Z,15.96
2023-04-16T07:46:17.267Z,15.99
2023-04-16T07:46:51.330Z,15.96
2023-04-16T07:47:38.246Z,15.95
2023-04-16T07:48:12.365Z,15.93
2023-04-16T07:48:59.279Z,15.90
2023-04-16T07:49:33.421Z,15.90
2023-04-16T07:50:22.224Z,15.93
2023-04-16T07:50:56.361Z,15.83
2023-04-16T07:51:43.267Z,15.98
2023-04-16T07:52:17.364Z,16.03
2023-04-16T07:53:04.249Z,16.02
2023-04-16T07:53:38.328Z,16.10
2023-04-16T07:54:18.240Z,16.11
2023-04-16T07:54:58.324Z,16.14
2023-04-16T07:55:38.219Z,16.15
2023-04-16T07:56:18.358Z,16.24
2023-04-16T07:56:59.233Z,16.23
2023-04-16T07:57:39.346Z,16.26
2023-04-16T07:58:19.221Z,16.20
2023-04-16T07:59:08.023Z,16.38
2023-04-16T08:00:00.268Z,16.30
2023-04-16T08:00:40.354Z,16.30
2023-04-16T08:01:21.219Z,16.34
2023-04-16T08:02:01.664Z,16.36
2023-04-16T08:02:42.312Z,16.30
2023-04-16T08:03:22.395Z,16.22
2023-04-16T08:04:03.409Z,16.35
2023-04-16T08:04:44.658Z,16.28
2023-04-16T08:05:26.318Z,16.36
2023-04-16T08:06:06.728Z,16.37
2023-04-16T08:06:47.212Z,16.33
2023-04-16T08:07:27.324Z,16.29
2023-04-16T08:08:07.268Z,16.38
2023-04-16T08:08:47.336Z,16.39
2023-04-16T08:09:29.210Z,16.53
2023-04-16T08:10:09.353Z,16.47
2023-04-16T08:10:50.220Z,16.53
2023-04-16T08:11:44.222Z,16.52
2023-04-16T08:12:38.224Z,16.62
2023-04-16T08:13:33.608Z,16.69
2023-04-16T08:14:08.384Z,16.58
2023-04-16T08:14:56.234Z,16.64
2023-04-16T08:15:30.809Z,16.67
2023-04-16T08:16:12.296Z,16.77
2023-04-16T08:16:46.440Z,16.69
2023-04-16T08:17:20.978Z,16.76
2023-04-16T08:18:01.239Z,16.63
2023-04-16T08:18:35.469Z,16.70
2023-04-16T08:19:09.249Z,16.69
2023-04-16T08:19:54.231Z,16.64
2023-04-16T08:20:28.321Z,16.65
2023-04-16T08:21:02.963Z,16.73
2023-04-16T08:21:43.234Z,16.64
2023-04-16T08:22:18.347Z,16.72
2023-04-16T08:22:54.865Z,16.73
2023-04-16T08:23:36.208Z,16.82
2023-04-16T08:24:10.270Z,16.84
2023-04-16T08:24:43.935Z,16.64
2023-04-16T08:25:24.200Z,16.63
2023-04-16T08:25:58.288Z,16.76
2023-04-16T08:26:31.952Z,16.72
2023-04-16T08:27:19.076Z,16.73
2023-04-16T08:27:54.773Z,16.82
2023-04-16T08:28:28.966Z,16.88
2023-04-16T08:29:09.453Z,16.84
2023-04-16T08:29:43.335Z,16.80
2023-04-16T08:30:17.075Z,16.80
2023-04-16T08:30:57.246Z,16.83
2023-04-16T08:31:31.771Z,16.80
2023-04-16T08:32:06.560Z,16.86
2023-04-16T08:32:48.622Z,16.79
2023-04-16T08:33:24.250Z,16.81
2023-04-16T08:33:57.934Z,16.76
2023-04-16T08:34:39.289Z,16.73
2023-04-16T08:35:13.353Z,16.79
2023-04-16T08:35:47.998Z,16.81
2023-04-16T08:36:28.233Z,16.78
2023-04-16T08:37:02.284Z,16.84
2023-04-16T08:37:36.002Z,16.79
2023-04-16T08:38:16.268Z,16.81
2023-04-16T08:38:52.205Z,16.79
2023-04-16T08:39:26.014Z,16.76
2023-04-16T08:40:09.187Z,16.76
2023-04-16T08:40:46.607Z,16.78
2023-04-16T08:41:22.830Z,16.85
2023-04-16T08:42:04.374Z,16.88
2023-04-16T08:43:00.411Z,16.87
2023-04-16T08:43:46.280Z,17.00